»·PEaware :: N13005 KSAN-KLAS

N13005 :: KSAN-KLAS

FLIGHT INFORMATION

Flight Status: Arrived
Operator: Privately registered:
United States
More flights under this callsign
Pilot: Kaloso N. (23070)
Aircraft: BOEING 737-800
(B738)
More flights by this aircraft type
Origin: KSAN San Diego Intl-Lindbergh
United States
Destination: KLAS McCarran Intl
United States
More flights between these airports :: More routes between these airports
Route: +ZZOOO2 MTBL TNP KEPEC6
File this flight plan on PilotEdge
Remarks: NONE
Altitude:
(Current/Filed)
21,000ft
Speed:
(Current/Filed)
295kts
Departed: 08-Nov-19 09:17 PM
Arrived: 08-Nov-19 10:29 PM
Distance/Time
Traveled:
225nm/1:12
Distance/Time
To Go:
Arrived

Flight Plot

Page will automatically refresh every two minutes.

Flight plan parsing failed; only flown route is shown


Map Options




Map Legend


Flown Route
Filed Route
Departure Airport
Arrival Airport
Navaid (VOR, NDB)
Fix

Horizontal Profiles

Position Reports

Time Latitude Longitude Heading Altitude Ground
Speed
08-Nov-19 20:47 32.732063 -117.193350 285 21ft 0kts
08-Nov-19 20:48 32.732063 -117.193350 285 21ft 0kts
08-Nov-19 20:49 32.732063 -117.193350 285 21ft 0kts
08-Nov-19 20:50 32.732063 -117.193350 285 21ft 0kts
08-Nov-19 20:51 32.732063 -117.193350 285 21ft 0kts
08-Nov-19 20:52 32.732063 -117.193350 285 21ft 0kts
08-Nov-19 20:53 32.732063 -117.193350 285 21ft 0kts
08-Nov-19 20:54 32.732063 -117.193350 285 21ft 0kts
08-Nov-19 20:55 32.732063 -117.193350 285 21ft 0kts
08-Nov-19 20:56 32.732063 -117.193350 285 21ft 0kts
08-Nov-19 20:57 32.732063 -117.193350 285 21ft 0kts
08-Nov-19 20:58 32.732063 -117.193350 285 21ft 0kts
08-Nov-19 20:59 32.732063 -117.193350 285 21ft 0kts
08-Nov-19 21:00 32.732063 -117.193350 285 21ft 0kts
08-Nov-19 21:01 32.732063 -117.193350 285 21ft 0kts
08-Nov-19 21:02 32.732063 -117.193350 285 21ft 0kts
08-Nov-19 21:03 32.732063 -117.193350 285 21ft 0kts
08-Nov-19 21:04 32.732063 -117.193350 285 21ft 0kts
08-Nov-19 21:05 32.732063 -117.193350 285 21ft 0kts
08-Nov-19 21:06 32.732063 -117.193350 285 21ft 0kts
08-Nov-19 21:07 32.732063 -117.193350 285 21ft 0kts
08-Nov-19 21:09 32.732063 -117.193350 285 21ft 0kts
08-Nov-19 21:10 32.732063 -117.193350 285 21ft 0kts
08-Nov-19 21:11 32.732063 -117.193350 285 21ft 0kts
08-Nov-19 21:12 32.732063 -117.193350 285 21ft 0kts
08-Nov-19 21:13 32.732063 -117.193350 285 21ft 0kts
08-Nov-19 21:14 32.732063 -117.193350 285 21ft 0kts
08-Nov-19 21:15 32.732238 -117.193389 24 21ft 6kts
08-Nov-19 21:16 32.732717 -117.190430 105 19ft 33kts
08-Nov-19 21:17 32.730868 -117.182747 107 17ft 60kts
08-Nov-19 21:18 32.729500 -117.177019 92 22ft 0kts
08-Nov-19 21:19 32.729500 -117.177019 92 22ft 0kts
08-Nov-19 21:20 32.729500 -117.177019 92 22ft 0kts
08-Nov-19 21:21 32.729500 -117.177019 92 22ft 0kts
08-Nov-19 21:22 32.729538 -117.176568 80 23ft 12kts
08-Nov-19 21:23 32.732717 -117.186302 286 19ft 137kts
08-Nov-19 21:24 32.743662 -117.232491 286 1656ft 207kts
08-Nov-19 21:25 32.756421 -117.302419 251 3596ft 251kts
08-Nov-19 21:26 32.691486 -117.305586 141 5938ft 272kts
08-Nov-19 21:27 32.636605 -117.245374 119 7911ft 280kts
08-Nov-19 21:27 32.625557 -117.183791 95 9306ft 286kts
08-Nov-19 21:29 32.618324 -117.097947 96 11120ft 293kts
08-Nov-19 21:29 32.612991 -117.038511 96 12349ft 299kts
08-Nov-19 21:30 32.606215 -116.963415 96 12998ft 303kts
08-Nov-19 21:31 32.607491 -116.884122 75 14445ft 309kts
08-Nov-19 21:33 32.637214 -116.782385 48 16869ft 320kts
08-Nov-19 21:33 32.706460 -116.735568 21 18753ft 329kts
08-Nov-19 21:34 32.800488 -116.690052 22 20844ft 343kts
08-Nov-19 21:35 32.895466 -116.643510 22 21002ft 393kts
08-Nov-19 21:36 33.008290 -116.588089 22 21000ft 393kts
08-Nov-19 21:37 33.121528 -116.528925 23 20999ft 393kts
08-Nov-19 21:38 33.229577 -116.472384 23 21000ft 393kts
08-Nov-19 21:39 33.333081 -116.418066 23 20999ft 393kts
08-Nov-19 21:40 33.437824 -116.320059 55 20998ft 393kts
08-Nov-19 21:41 33.520766 -116.180764 54 20998ft 393kts
08-Nov-19 21:42 33.584453 -116.074188 53 21000ft 393kts
08-Nov-19 21:43 33.674496 -116.003891 23 21001ft 393kts
08-Nov-19 21:44 33.774983 -115.950868 23 20999ft 393kts
08-Nov-19 21:45 33.874965 -115.897417 23 21000ft 393kts
08-Nov-19 21:46 33.975778 -115.843390 23 21000ft 393kts
08-Nov-19 21:47 34.075433 -115.789844 23 21000ft 393kts
08-Nov-19 21:48 34.163266 -115.713480 43 20998ft 393kts
08-Nov-19 21:49 34.242882 -115.623171 42 20999ft 393kts
08-Nov-19 21:50 34.323586 -115.534561 33 21001ft 393kts
08-Nov-19 21:51 34.424858 -115.486383 19 21000ft 393kts
08-Nov-19 21:52 34.527871 -115.441693 19 21737ft 387kts
08-Nov-19 21:53 34.629050 -115.397526 19 23007ft 397kts
08-Nov-19 21:54 34.734725 -115.351277 19 22999ft 405kts
08-Nov-19 21:55 34.844637 -115.352899 342 23007ft 406kts
08-Nov-19 21:56 34.951795 -115.395271 342 23000ft 405kts
08-Nov-19 21:57 35.059251 -115.437148 342 23000ft 405kts
08-Nov-19 21:58 35.166116 -115.478894 342 23000ft 405kts
08-Nov-19 21:59 35.273735 -115.521052 342 23000ft 405kts
08-Nov-19 22:00 35.380232 -115.562887 342 22804ft 409kts
08-Nov-19 22:01 35.488022 -115.605346 342 20444ft 400kts
08-Nov-19 22:02 35.592528 -115.646631 342 17774ft 391kts
08-Nov-19 22:03 35.694591 -115.649163 31 14964ft 375kts
08-Nov-19 22:04 35.772993 -115.574447 10 13014ft 336kts
08-Nov-19 22:05 35.857634 -115.569908 2 13006ft 300kts
08-Nov-19 22:06 35.941227 -115.561960 18 13009ft 301kts
08-Nov-19 22:07 35.995888 -115.488421 68 13001ft 302kts
08-Nov-19 22:08 36.025579 -115.392731 68 12983ft 288kts
08-Nov-19 22:09 36.025745 -115.298511 96 12827ft 284kts
08-Nov-19 22:10 36.017981 -115.193984 95 9394ft 320kts
08-Nov-19 22:11 36.011345 -115.096007 94 9001ft 262kts
08-Nov-19 22:12 36.005860 -115.006070 94 8547ft 261kts
08-Nov-19 22:13 36.000631 -114.918158 94 7554ft 257kts
08-Nov-19 22:14 35.995382 -114.831217 94 6998ft 254kts
08-Nov-19 22:15 35.989743 -114.745948 94 7329ft 252kts
08-Nov-19 22:16 35.984052 -114.659900 94 7998ft 236kts
08-Nov-19 22:17 36.020272 -114.602854 8 8060ft 235kts
08-Nov-19 22:18 36.070880 -114.626235 265 8018ft 214kts
08-Nov-19 22:19 36.070508 -114.693276 275 8007ft 212kts
08-Nov-19 22:20 36.073312 -114.768318 269 7356ft 202kts
08-Nov-19 22:21 36.073492 -114.833137 270 6316ft 197kts
08-Nov-19 22:22 36.073627 -114.901974 270 5164ft 186kts
08-Nov-19 22:23 36.074102 -114.953593 275 4929ft 177kts
08-Nov-19 22:24 36.074443 -115.003543 266 4308ft 176kts
08-Nov-19 22:25 36.073567 -115.050533 270 3208ft 167kts
08-Nov-19 22:26 36.073871 -115.093853 268 2675ft 162kts
08-Nov-19 22:27 36.073663 -115.136701 270 2077ft 144kts
08-Nov-19 22:28 36.073995 -115.148813 289 2114ft 14kts
08-Nov-19 22:29 36.074590 -115.150274 300 2119ft 0kts
08-Nov-19 22:30 36.074590 -115.150274 300 2119ft 0kts
08-Nov-19 22:31 36.075131 -115.155579 290 2139ft 26kts
08-Nov-19 22:32 36.077573 -115.161259 13 2154ft 23kts
08-Nov-19 22:33 36.078317 -115.153361 35 2124ft 31kts

Navigation Log

Ident Type
Flight plan parsing failed, navigation log unavailable